Barksdale Air Force Base
KBAD : now visible

Airfield :











YOU CAN JOIN US ON...

 
LOGIN :

Register | Disclaimer

   EN    FR    IT 

 









Legend :    VFR   Marginal VFR   IFR   Intensive IFR   Very Intensive IFR
Visi :
Ceiling :
>= 8 km
>= 3000ft
5 to 8 km
1000 to 3000 ft
1500m to 5 km
500 to 1000 ft
800 to 1500m
200 to 500 ft
< 800m
< 200 ft
Symbols :   Thunderstorms  Fog  Heavy snow  Heavy precipitations  Wind > 20 kt






- Airport Elevation : 166 ft


KBAD - Barksdale Air Force Base

CURRENT METAR :
  • 100656Z AUTO 36003KT 10SM BKN060 OVC170 16/14 A2997 RMK AO2 SLP151 T01640137

EXPIRED METARs :
  • 100556Z AUTO 03003KT 10SM FEW060 BKN130 17/13 A2997 RMK AO2 RAB27E36 SLP151 P0000 60000 T01740133 10198 20173 402470173 52007
  • 100536Z AUTO 00000KT 10SM BKN130 18/12 A2997 RMK AO2 RAB27E36 SLP151
  • 100456Z AUTO 00000KT 10SM BKN140 18/13 A2996 RMK AO2 SLP147 T01750130

TAF TAF KBAD
Valid from the 09 at 21:00 until the 11 at 03:00 UTC


092113Z 0921/1103 06012KT 9999 FEW020 BKN180 QNH2985INS
BECMG 0923/0924 06012KT 9999 BKN035 QNH2984INS
BECMG 1001/1002 08012KT 9999 VCSH BKN020 OVC100 QNH2997INS
BECMG 1007/1008 05010KT 9999 NSW FEW040 QNH3000INS TX24/0921Z TN14/1006Z LAST NO AMDS AFT 1003 NEXT 1014



MET'MAP, your aeronautical weather chart ! - Copyright ORBIFLY December 2007 - Disclaimer

ORBIFLY MET'MAP TEAM :

Programming & Development : Alexandra Zaïnal
Concept & original design : Baudouin d'Aumeries
Assistance for programming : Marc-Olivier Méhu
Technical & hardware support : Manuel Goepfert

Contact : metmap@orbifly.com




SOURCES & CREDITS :

   NOAA       Earth
Advisory